createdAt,value
2018-04-06T00:01:41.610Z,1.20
2018-04-06T00:04:09.175Z,1.20
2018-04-06T00:06:36.998Z,1.10
2018-04-06T00:09:07.643Z,1.20
2018-04-06T00:11:35.910Z,1.30
2018-04-06T00:14:04.086Z,1.20
2018-04-06T00:16:31.649Z,1.30
2018-04-06T00:19:00.025Z,1.20
2018-04-06T00:21:27.986Z,1.20
2018-04-06T00:23:55.655Z,1.10
2018-04-06T00:26:23.524Z,1.10
2018-04-06T00:28:52.097Z,1.10
2018-04-06T00:31:19.765Z,1.10
2018-04-06T00:33:47.423Z,1.10
2018-04-06T00:36:15.193Z,1.10
2018-04-06T00:38:42.853Z,1.10
2018-04-06T00:41:11.849Z,1.00
2018-04-06T00:43:39.410Z,1.00
2018-04-06T00:46:07.377Z,1.10
2018-04-06T00:48:34.938Z,0.90
2018-04-06T00:51:02.498Z,1.00
2018-04-06T00:53:42.143Z,1.00
2018-04-06T00:56:09.703Z,1.00
2018-04-06T00:58:38.081Z,0.90
2018-04-06T01:01:06.665Z,0.90
2018-04-06T01:03:34.203Z,0.80
2018-04-06T01:06:01.772Z,0.80
2018-04-06T01:08:29.559Z,0.90
2018-04-06T01:10:57.127Z,0.90
2018-04-06T01:13:25.908Z,0.80
2018-04-06T01:15:53.682Z,0.80
2018-04-06T01:18:22.255Z,0.60
2018-04-06T01:20:49.818Z,0.60
2018-04-06T01:23:17.573Z,0.60
2018-04-06T01:25:45.650Z,0.60
2018-04-06T01:28:13.234Z,0.70
2018-04-06T01:30:40.689Z,0.70
2018-04-06T01:33:08.942Z,0.70
2018-04-06T01:35:36.606Z,0.70
2018-04-06T01:38:04.061Z,0.70
2018-04-06T01:40:31.606Z,0.60
2018-04-06T01:42:59.694Z,0.50
2018-04-06T01:45:27.259Z,0.50
2018-04-06T01:47:54.726Z,0.60
2018-04-06T01:50:23.425Z,0.50
2018-04-06T01:52:51.749Z,0.50
2018-04-06T01:55:19.238Z,0.50
2018-04-06T01:57:46.896Z,0.60
2018-04-06T02:00:14.553Z,0.60
2018-04-06T02:02:42.217Z,0.60
2018-04-06T02:05:10.199Z,0.60
2018-04-06T02:07:37.849Z,0.50
2018-04-06T02:10:05.612Z,0.40
2018-04-06T02:12:33.276Z,0.30
2018-04-06T02:15:00.875Z,0.30
2018-04-06T02:17:28.602Z,0.20
2018-04-06T02:19:56.165Z,0.30
2018-04-06T02:22:23.725Z,0.30
2018-04-06T02:24:52.335Z,0.40
2018-04-06T02:27:20.595Z,0.40
2018-04-06T02:29:48.263Z,0.40
2018-04-06T02:32:16.907Z,0.20
2018-04-06T02:34:44.402Z,0.20
2018-04-06T02:37:11.967Z,0.30
2018-04-06T02:39:40.434Z,0.40
2018-04-06T02:42:07.904Z,0.40
2018-04-06T02:44:36.594Z,0.40
2018-04-06T02:47:05.271Z,0.50
2018-04-06T02:49:32.736Z,0.50
2018-04-06T02:52:01.205Z,0.40
2018-04-06T02:54:28.968Z,0.40
2018-04-06T02:56:56.535Z,0.50
2018-04-06T02:59:24.102Z,0.50
2018-04-06T03:01:52.439Z,0.50
2018-04-06T03:04:19.930Z,0.50
2018-04-06T03:06:48.413Z,0.50
2018-04-06T03:09:16.689Z,0.60
2018-04-06T03:11:44.122Z,0.60
2018-04-06T03:14:12.018Z,0.70
2018-04-06T03:16:39.627Z,0.80
2018-04-06T03:19:08.046Z,0.70
2018-04-06T03:21:35.650Z,0.70
2018-04-06T03:24:03.481Z,0.80
2018-04-06T03:26:31.908Z,1.00
2018-04-06T03:28:59.594Z,0.90
2018-04-06T03:31:27.392Z,1.00
2018-04-06T03:33:55.007Z,0.90
2018-04-06T03:36:23.027Z,0.90
2018-04-06T03:38:50.565Z,0.90
2018-04-06T03:41:18.021Z,1.00
2018-04-06T03:43:45.830Z,1.00
2018-04-06T03:46:14.185Z,1.10
2018-04-06T03:48:41.751Z,1.10
2018-04-06T03:51:09.373Z,1.10
2018-04-06T03:53:36.969Z,1.00
2018-04-06T03:56:04.510Z,0.90
2018-04-06T03:58:32.090Z,0.90
2018-04-06T04:01:00.374Z,1.00
2018-04-06T04:03:27.935Z,1.10
2018-04-06T04:05:55.527Z,1.10
2018-04-06T04:08:23.517Z,1.20
2018-04-06T04:10:51.017Z,1.20
2018-04-06T04:13:18.881Z,1.20
2018-04-06T04:15:46.339Z,1.20
2018-04-06T04:18:13.964Z,1.30
2018-04-06T04:20:41.671Z,1.40
2018-04-06T04:23:10.046Z,1.40
2018-04-06T04:25:38.319Z,1.30
2018-04-06T04:28:06.082Z,1.40
2018-04-06T04:30:33.650Z,1.40
2018-04-06T04:33:01.386Z,1.30
2018-04-06T04:35:28.870Z,1.30
2018-04-06T04:37:56.438Z,1.20
2018-04-06T04:40:24.895Z,1.20
2018-04-06T04:42:52.573Z,1.20
2018-04-06T04:45:20.046Z,1.20
2018-04-06T04:47:48.520Z,1.20
2018-04-06T04:50:16.905Z,1.20
2018-04-06T04:52:45.302Z,1.10
2018-04-06T04:55:13.566Z,1.20
2018-04-06T04:57:41.322Z,1.10
2018-04-06T05:00:08.790Z,1.20
2018-04-06T05:02:37.026Z,1.20
2018-04-06T05:05:04.633Z,1.20
2018-04-06T05:07:33.079Z,1.30
2018-04-06T05:10:00.771Z,1.20
2018-04-06T05:12:29.349Z,1.40
2018-04-06T05:14:57.123Z,1.30
2018-04-06T05:17:24.682Z,1.40
2018-04-06T05:19:52.141Z,1.50
2018-04-06T05:22:19.915Z,1.50
2018-04-06T05:24:48.150Z,1.60
2018-04-06T05:27:16.145Z,1.60
2018-04-06T05:29:43.833Z,1.60
2018-04-06T05:32:12.079Z,1.80
2018-04-06T05:34:39.560Z,1.80
2018-04-06T05:37:08.137Z,1.90
2018-04-06T05:39:35.610Z,1.80
2018-04-06T05:42:03.865Z,1.90
2018-04-06T05:44:31.387Z,1.90
2018-04-06T05:46:58.902Z,1.90
2018-04-06T05:49:27.361Z,1.90
2018-04-06T05:51:55.234Z,1.90
2018-04-06T05:54:23.206Z,2.00
2018-04-06T05:56:50.769Z,2.10
2018-04-06T05:59:18.431Z,2.10
2018-04-06T06:01:46.194Z,2.30
2018-04-06T06:04:13.658Z,2.50
2018-04-06T06:06:41.941Z,2.70
2018-04-06T06:09:10.610Z,2.90
2018-04-06T06:11:38.173Z,2.90
2018-04-06T06:14:05.643Z,3.30
2018-04-06T06:16:34.418Z,4.10
2018-04-06T06:19:01.987Z,4.10
2018-04-06T06:21:29.642Z,4.50
2018-04-06T06:23:57.179Z,4.70
2018-04-06T06:26:24.675Z,4.80
2018-04-06T06:28:53.189Z,5.00
2018-04-06T06:31:20.693Z,4.90
2018-04-06T06:33:48.158Z,5.10
2018-04-06T06:36:15.731Z,5.10
2018-04-06T06:38:44.306Z,4.60
2018-04-06T06:41:11.971Z,4.60
2018-04-06T06:43:42.606Z,4.60
2018-04-06T06:46:10.085Z,4.80
2018-04-06T06:48:38.357Z,4.90
2018-04-06T06:51:06.664Z,5.00
2018-04-06T06:53:34.291Z,5.00
2018-04-06T06:56:02.152Z,5.10
2018-04-06T06:58:29.814Z,5.20
2018-04-06T07:00:57.412Z,5.50
2018-04-06T07:03:25.860Z,6.70
2018-04-06T07:05:54.099Z,6.70
2018-04-06T07:08:21.801Z,6.60
2018-04-06T07:10:50.043Z,7.30
2018-04-06T07:13:17.505Z,7.30
2018-04-06T07:15:45.235Z,7.30
2018-04-06T07:18:12.862Z,7.40
2018-04-06T07:20:41.130Z,8.10
2018-04-06T07:23:08.886Z,8.10
2018-04-06T07:25:36.351Z,8.40
2018-04-06T07:28:03.915Z,8.50
2018-04-06T07:30:31.837Z,8.40
2018-04-06T07:32:59.303Z,8.30
2018-04-06T07:35:26.824Z,8.90
2018-04-06T07:37:54.295Z,8.60
2018-04-06T07:40:21.763Z,8.40
2018-04-06T07:42:49.339Z,8.50
2018-04-06T07:45:17.570Z,9.00
2018-04-06T07:47:45.088Z,9.00
2018-04-06T07:50:12.545Z,9.20
2018-04-06T07:52:41.141Z,9.30
2018-04-06T07:55:08.742Z,9.00
2018-04-06T07:57:36.233Z,8.60
2018-04-06T08:00:03.733Z,9.00
2018-04-06T08:02:32.302Z,9.70
2018-04-06T08:04:59.757Z,9.70
2018-04-06T08:07:27.218Z,9.90
2018-04-06T08:09:55.114Z,9.90
2018-04-06T08:12:22.865Z,9.80
2018-04-06T08:14:51.226Z,9.30
2018-04-06T08:17:18.985Z,9.30
2018-04-06T08:19:46.645Z,10.20
2018-04-06T08:22:14.314Z,10.60
2018-04-06T08:24:42.073Z,10.70
2018-04-06T08:27:10.310Z,11.00
2018-04-06T08:29:37.777Z,11.00
2018-04-06T08:32:05.465Z,11.30
2018-04-06T08:34:33.025Z,11.20
2018-04-06T08:37:00.689Z,11.10
2018-04-06T08:39:28.588Z,11.30
2018-04-06T08:41:56.943Z,11.20
2018-04-06T08:44:24.515Z,11.10
2018-04-06T08:46:53.078Z,11.70
2018-04-06T08:49:20.544Z,11.70
2018-04-06T08:51:48.202Z,11.30
2018-04-06T08:54:16.837Z,11.20
2018-04-06T08:56:44.466Z,11.20
2018-04-06T08:59:12.834Z,11.80
2018-04-06T09:01:41.413Z,11.90
2018-04-06T09:04:09.083Z,11.80
2018-04-06T09:06:37.146Z,11.10
2018-04-06T09:09:07.377Z,11.00
2018-04-06T09:11:34.875Z,11.20
2018-04-06T09:14:02.341Z,11.60
2018-04-06T09:16:29.959Z,11.40
2018-04-06T09:18:57.825Z,11.90
2018-04-06T09:21:25.591Z,11.80
2018-04-06T09:23:53.253Z,12.40
2018-04-06T09:26:20.784Z,12.40
2018-04-06T09:28:48.366Z,12.30
2018-04-06T09:31:15.829Z,12.20
2018-04-06T09:33:43.740Z,12.10
2018-04-06T09:36:11.363Z,12.30
2018-04-06T09:38:38.922Z,12.60
2018-04-06T09:41:06.994Z,13.00
2018-04-06T09:43:34.530Z,13.10
2018-04-06T09:46:02.105Z,12.80
2018-04-06T09:48:29.774Z,12.50
2018-04-06T09:50:57.242Z,12.20
2018-04-06T09:53:25.474Z,12.70
2018-04-06T09:55:53.988Z,12.70
2018-04-06T09:58:22.467Z,12.60
2018-04-06T10:00:50.025Z,12.60
2018-04-06T10:03:17.898Z,12.40
2018-04-06T10:05:46.167Z,12.70
2018-04-06T10:08:13.770Z,12.70
2018-04-06T10:10:41.239Z,13.10
2018-04-06T10:13:08.792Z,13.50
2018-04-06T10:15:36.530Z,14.10
2018-04-06T10:18:04.138Z,14.40
2018-04-06T10:20:31.745Z,14.40
2018-04-06T10:22:59.618Z,14.70
2018-04-06T10:25:27.274Z,14.40
2018-04-06T10:27:54.837Z,15.20
2018-04-06T10:30:22.397Z,15.80
2018-04-06T10:32:49.879Z,15.50
2018-04-06T10:35:19.025Z,15.80
2018-04-06T10:37:46.940Z,15.80
2018-04-06T10:40:14.910Z,15.90
2018-04-06T10:42:42.666Z,15.40
2018-04-06T10:45:10.335Z,15.60
2018-04-06T10:47:38.130Z,16.00
2018-04-06T10:50:05.607Z,16.30
2018-04-06T10:52:33.078Z,16.40
2018-04-06T10:55:00.782Z,15.90
2018-04-06T10:57:28.345Z,16.00
2018-04-06T10:59:56.820Z,16.70
2018-04-06T11:02:24.799Z,16.70
2018-04-06T11:04:52.283Z,16.40
2018-04-06T11:07:19.853Z,17.50
2018-04-06T11:09:47.486Z,17.10
2018-04-06T11:12:15.766Z,16.40
2018-04-06T11:14:43.234Z,16.40
2018-04-06T11:17:11.809Z,16.50
2018-04-06T11:19:39.781Z,16.50
2018-04-06T11:22:07.376Z,17.00
2018-04-06T11:24:35.106Z,17.50
2018-04-06T11:27:03.081Z,17.70
2018-04-06T11:29:31.476Z,18.20
2018-04-06T11:31:59.734Z,18.00
2018-04-06T11:34:27.417Z,18.00
2018-04-06T11:36:55.782Z,17.10
2018-04-06T11:39:23.542Z,16.60
2018-04-06T11:41:51.411Z,17.00
2018-04-06T11:44:19.174Z,16.80
2018-04-06T11:46:46.747Z,17.40
2018-04-06T11:49:15.318Z,17.90
2018-04-06T11:51:42.889Z,17.90
2018-04-06T11:54:10.391Z,18.70
2018-04-06T11:56:38.622Z,17.80
2018-04-06T11:59:06.190Z,17.80
2018-04-06T12:01:33.790Z,16.90
2018-04-06T12:04:01.620Z,16.80
2018-04-06T12:06:29.378Z,17.30
2018-04-06T12:08:57.145Z,18.10
2018-04-06T12:11:25.012Z,18.80
2018-04-06T12:13:52.546Z,19.30
2018-04-06T12:16:20.026Z,20.00
2018-04-06T12:18:47.949Z,19.70
2018-04-06T12:21:16.044Z,19.00
2018-04-06T12:23:43.536Z,19.00
2018-04-06T12:26:10.990Z,19.50
2018-04-06T12:28:38.782Z,20.40
2018-04-06T12:31:06.318Z,20.00
2018-04-06T12:33:34.550Z,18.80
2018-04-06T12:36:02.074Z,18.70
2018-04-06T12:38:30.530Z,19.80
2018-04-06T12:40:58.287Z,19.80
2018-04-06T12:43:25.834Z,20.30
2018-04-06T12:45:53.326Z,19.90
2018-04-06T12:48:21.994Z,19.30
2018-04-06T12:50:49.658Z,19.30
2018-04-06T12:53:17.174Z,18.80
2018-04-06T12:55:45.087Z,19.90
2018-04-06T12:58:12.549Z,19.30
2018-04-06T13:00:40.109Z,20.10
2018-04-06T13:03:08.987Z,18.90
2018-04-06T13:05:36.659Z,18.90
2018-04-06T13:08:04.422Z,18.90
2018-04-06T13:10:32.186Z,18.90
2018-04-06T13:12:59.717Z,19.00
2018-04-06T13:15:27.202Z,18.50
2018-04-06T13:17:54.673Z,18.80
2018-04-06T13:20:22.427Z,18.20
2018-04-06T13:22:49.994Z,17.80
2018-04-06T13:25:17.751Z,18.40
2018-04-06T13:27:45.515Z,17.70
2018-04-06T13:30:13.093Z,18.00
2018-04-06T13:32:41.345Z,17.90
2018-04-06T13:35:09.014Z,17.80
2018-04-06T13:37:38.015Z,16.40
2018-04-06T13:40:05.562Z,16.40
2018-04-06T13:42:33.430Z,16.40
2018-04-06T13:45:01.099Z,16.10
2018-04-06T13:47:29.382Z,15.40
2018-04-06T13:49:57.237Z,15.40
2018-04-06T13:52:24.801Z,15.40
2018-04-06T13:54:52.303Z,15.50
2018-04-06T13:57:20.749Z,15.40
2018-04-06T13:59:48.214Z,15.30
2018-04-06T14:02:16.473Z,14.90
2018-04-06T14:04:44.442Z,14.90
2018-04-06T14:07:12.114Z,15.10
2018-04-06T14:09:39.778Z,15.20
2018-04-06T14:12:08.350Z,15.10
2018-04-06T14:14:36.018Z,15.10
2018-04-06T14:17:04.285Z,14.80
2018-04-06T14:19:32.053Z,14.80
2018-04-06T14:21:59.861Z,14.80
2018-04-06T14:24:27.486Z,14.70
2018-04-06T14:26:56.170Z,15.20
2018-04-06T14:29:24.129Z,15.20
2018-04-06T14:31:51.794Z,15.30
2018-04-06T14:34:19.462Z,15.10
2018-04-06T14:36:47.057Z,15.00
2018-04-06T14:39:14.581Z,14.60
2018-04-06T14:41:42.149Z,14.60
2018-04-06T14:44:10.418Z,14.80
2018-04-06T14:46:38.006Z,14.90
2018-04-06T14:49:06.376Z,14.70
2018-04-06T14:51:34.958Z,14.60
2018-04-06T14:54:02.913Z,14.60
2018-04-06T14:56:30.574Z,14.70
2018-04-06T14:58:58.038Z,14.70
2018-04-06T15:01:25.910Z,14.60
2018-04-06T15:03:53.680Z,14.60
2018-04-06T15:06:21.445Z,14.50
2018-04-06T15:08:49.505Z,14.50
2018-04-06T15:11:17.052Z,14.50
2018-04-06T15:13:44.615Z,14.60
2018-04-06T15:16:12.298Z,14.50
2018-04-06T15:18:39.858Z,14.70
2018-04-06T15:21:07.419Z,15.50
2018-04-06T15:23:35.272Z,15.50
2018-04-06T15:26:02.942Z,15.50
2018-04-06T15:28:30.610Z,15.40
2018-04-06T15:30:59.439Z,14.70
2018-04-06T15:33:27.363Z,14.70
2018-04-06T15:35:55.126Z,14.50
2018-04-06T15:38:22.790Z,14.40
2018-04-06T15:40:50.315Z,14.40
2018-04-06T15:43:17.782Z,14.40
2018-04-06T15:45:45.362Z,14.30
2018-04-06T15:48:13.233Z,14.30
2018-04-06T15:50:40.894Z,14.40
2018-04-06T15:53:09.990Z,14.20
2018-04-06T15:55:37.598Z,14.20
2018-04-06T15:58:05.118Z,14.20
2018-04-06T16:00:32.592Z,14.20
2018-04-06T16:03:01.054Z,14.30
2018-04-06T16:05:28.728Z,14.20
2018-04-06T16:07:57.101Z,14.20
2018-04-06T16:10:25.569Z,15.10
2018-04-06T16:12:53.122Z,15.10
2018-04-06T16:15:20.591Z,15.30
2018-04-06T16:17:48.253Z,15.20
2018-04-06T16:20:15.714Z,15.50
2018-04-06T16:22:43.186Z,15.10
2018-04-06T16:25:11.850Z,15.00
2018-04-06T16:27:39.329Z,14.90
2018-04-06T16:30:06.798Z,14.90
2018-04-06T16:32:34.421Z,14.70
2018-04-06T16:35:01.902Z,14.50
2018-04-06T16:37:30.153Z,14.10
2018-04-06T16:39:57.831Z,14.10
2018-04-06T16:42:25.411Z,14.10
2018-04-06T16:44:53.678Z,13.90
2018-04-06T16:47:22.564Z,13.90
2018-04-06T16:49:50.593Z,13.90
2018-04-06T16:52:18.098Z,13.90
2018-04-06T16:54:46.775Z,13.80
2018-04-06T16:57:14.538Z,13.80
2018-04-06T16:59:42.293Z,13.80
2018-04-06T17:02:09.930Z,13.70
2018-04-06T17:04:37.419Z,13.70
2018-04-06T17:07:05.177Z,13.60
2018-04-06T17:09:32.650Z,13.60
2018-04-06T17:12:00.917Z,13.50
2018-04-06T17:14:29.006Z,13.50
2018-04-06T17:16:57.341Z,13.40
2018-04-06T17:19:24.806Z,13.30
2018-04-06T17:21:52.298Z,13.30
2018-04-06T17:24:21.067Z,13.20
2018-04-06T17:26:48.526Z,13.20
2018-04-06T17:29:16.078Z,13.10
2018-04-06T17:31:43.950Z,13.10
2018-04-06T17:34:11.511Z,13.10
2018-04-06T17:36:39.166Z,13.00
2018-04-06T17:39:06.725Z,12.90
2018-04-06T17:41:34.186Z,12.80
2018-04-06T17:44:01.646Z,12.80
2018-04-06T17:46:29.165Z,12.60
2018-04-06T17:48:56.653Z,12.40
2018-04-06T17:51:24.327Z,12.30
2018-04-06T17:53:51.993Z,12.20
2018-04-06T17:56:19.853Z,12.20
2018-04-06T17:58:47.338Z,12.10
2018-04-06T18:01:15.773Z,12.10
2018-04-06T18:03:43.278Z,12.10
2018-04-06T18:06:11.525Z,11.90
2018-04-06T18:08:39.093Z,11.80
2018-04-06T18:11:07.685Z,11.90
2018-04-06T18:13:36.042Z,11.90
2018-04-06T18:16:03.762Z,11.90
2018-04-06T18:18:31.487Z,11.80
2018-04-06T18:20:59.953Z,11.60
2018-04-06T18:23:27.523Z,11.60
2018-04-06T18:25:55.177Z,11.60
2018-04-06T18:28:23.661Z,11.40
2018-04-06T18:30:51.226Z,11.30
2018-04-06T18:33:19.098Z,11.30
2018-04-06T18:35:46.757Z,11.30
2018-04-06T18:38:14.417Z,11.20
2018-04-06T18:40:42.079Z,11.10
2018-04-06T18:43:09.650Z,11.20
2018-04-06T18:45:37.880Z,11.10
2018-04-06T18:48:05.396Z,11.10
2018-04-06T18:50:33.630Z,11.00
2018-04-06T18:53:01.621Z,11.00
2018-04-06T18:55:29.184Z,10.90
2018-04-06T18:57:56.951Z,10.90
2018-04-06T19:00:25.022Z,10.90
2018-04-06T19:02:52.673Z,10.80
2018-04-06T19:05:20.545Z,10.90
2018-04-06T19:07:48.117Z,10.80
2018-04-06T19:10:15.870Z,10.80
2018-04-06T19:12:43.642Z,10.80
2018-04-06T19:15:11.242Z,10.80
2018-04-06T19:17:39.418Z,10.70
2018-04-06T19:20:07.246Z,10.70
2018-04-06T19:22:34.705Z,10.80
2018-04-06T19:25:03.185Z,10.70
2018-04-06T19:27:30.757Z,10.60
2018-04-06T19:29:58.223Z,10.60
2018-04-06T19:32:26.889Z,10.50
2018-04-06T19:34:55.886Z,10.50
2018-04-06T19:37:23.362Z,10.40
2018-04-06T19:39:51.929Z,10.40
2018-04-06T19:42:19.651Z,10.50
2018-04-06T19:44:47.885Z,10.50
2018-04-06T19:47:16.474Z,10.50
2018-04-06T19:49:44.733Z,10.50
2018-04-06T19:52:12.398Z,10.40
2018-04-06T19:54:40.171Z,10.40
2018-04-06T19:57:07.840Z,10.40
2018-04-06T19:59:35.390Z,10.50
2018-04-06T20:02:03.157Z,10.50
2018-04-06T20:04:30.714Z,10.40
2018-04-06T20:06:58.681Z,10.40
2018-04-06T20:09:26.145Z,10.40
2018-04-06T20:11:53.901Z,10.40
2018-04-06T20:14:21.770Z,10.40
2018-04-06T20:16:49.444Z,10.40
2018-04-06T20:19:17.543Z,10.30
2018-04-06T20:21:45.478Z,10.30
2018-04-06T20:24:13.027Z,10.10
2018-04-06T20:26:40.706Z,10.10
2018-04-06T20:29:08.566Z,10.00
2018-04-06T20:31:36.041Z,10.00
2018-04-06T20:34:04.514Z,10.00
2018-04-06T20:36:32.098Z,10.00
2018-04-06T20:39:00.855Z,9.90
2018-04-06T20:41:28.526Z,9.90
2018-04-06T20:43:56.086Z,9.90
2018-04-06T20:46:24.262Z,9.80
2018-04-06T20:48:51.810Z,9.90
2018-04-06T20:51:19.381Z,9.90
2018-04-06T20:53:47.248Z,9.90
2018-04-06T20:56:14.882Z,9.90
2018-04-06T20:58:42.569Z,9.90
2018-04-06T21:01:10.230Z,9.90
2018-04-06T21:03:38.731Z,9.80
2018-04-06T21:06:07.190Z,9.90
2018-04-06T21:08:34.853Z,9.80
2018-04-06T21:11:02.525Z,9.90
2018-04-06T21:13:30.197Z,9.80
2018-04-06T21:15:58.470Z,9.60
2018-04-06T21:18:27.246Z,9.60
2018-04-06T21:20:55.810Z,9.50
2018-04-06T21:23:24.118Z,9.50
2018-04-06T21:25:51.642Z,9.50
2018-04-06T21:28:19.278Z,9.60
2018-04-06T21:30:46.747Z,9.50
2018-04-06T21:33:14.553Z,9.50
2018-04-06T21:35:42.098Z,9.40
2018-04-06T21:38:09.594Z,9.30
2018-04-06T21:40:38.266Z,9.30
2018-04-06T21:43:05.928Z,9.30
2018-04-06T21:45:33.490Z,9.40
2018-04-06T21:48:01.758Z,9.30
2018-04-06T21:50:29.534Z,9.30
2018-04-06T21:52:58.726Z,9.20
2018-04-06T21:55:26.191Z,9.20
2018-04-06T21:57:53.729Z,9.30
2018-04-06T22:00:21.196Z,9.20
2018-04-06T22:02:48.702Z,9.20
2018-04-06T22:05:16.450Z,9.10
2018-04-06T22:07:44.185Z,8.90
2018-04-06T22:10:11.650Z,8.80
2018-04-06T22:12:39.335Z,8.70
2018-04-06T22:15:07.790Z,8.80
2018-04-06T22:17:35.258Z,8.80
2018-04-06T22:20:02.731Z,8.90
2018-04-06T22:22:31.393Z,8.80
2018-04-06T22:24:59.778Z,8.70
2018-04-06T22:27:27.446Z,8.70
2018-04-06T22:29:55.114Z,8.70
2018-04-06T22:32:22.934Z,8.70
2018-04-06T22:34:50.542Z,8.70
2018-04-06T22:37:18.342Z,8.70
2018-04-06T22:39:45.965Z,8.90
2018-04-06T22:42:13.525Z,8.90
2018-04-06T22:44:41.391Z,8.80
2018-04-06T22:47:08.849Z,8.80
2018-04-06T22:49:36.410Z,8.70
2018-04-06T22:52:04.278Z,8.80
2018-04-06T22:54:31.809Z,8.70
2018-04-06T22:56:59.618Z,8.60
2018-04-06T22:59:27.882Z,8.60
2018-04-06T23:01:55.337Z,8.60
2018-04-06T23:04:22.939Z,8.60
2018-04-06T23:06:50.558Z,8.60
2018-04-06T23:09:18.068Z,8.60
2018-04-06T23:11:45.894Z,8.50
2018-04-06T23:14:14.121Z,8.40
2018-04-06T23:16:41.674Z,8.40
2018-04-06T23:19:09.249Z,8.40
2018-04-06T23:21:36.759Z,8.40
2018-04-06T23:24:05.022Z,8.40
2018-04-06T23:26:32.819Z,8.40
2018-04-06T23:29:00.650Z,8.40
2018-04-06T23:31:28.310Z,8.40
2018-04-06T23:33:56.598Z,8.30
2018-04-06T23:36:24.155Z,8.30
2018-04-06T23:38:51.714Z,8.20
2018-04-06T23:41:19.574Z,8.10
2018-04-06T23:43:47.234Z,8.00
2018-04-06T23:46:14.902Z,7.90
2018-04-06T23:48:42.770Z,8.00
2018-04-06T23:51:10.738Z,8.00
2018-04-06T23:53:38.293Z,8.00
2018-04-06T23:56:05.857Z,8.00
2018-04-06T23:58:33.531Z,7.90
